sensor_id;sensor_type;location;lat;lon;timestamp;P1;durP1;ratioP1;P2;durP2;ratioP2
18716;SDS011;9487;50.892;6.906;2022-08-23T00:01:20;6.30;;;4.50;;
18716;SDS011;9487;50.892;6.906;2022-08-23T00:03:49;4.57;;;3.73;;
18716;SDS011;9487;50.892;6.906;2022-08-23T00:06:17;4.90;;;3.50;;
18716;SDS011;9487;50.892;6.906;2022-08-23T00:08:47;5.97;;;3.73;;
18716;SDS011;9487;50.892;6.906;2022-08-23T00:11:25;5.60;;;3.80;;
18716;SDS011;9487;50.892;6.906;2022-08-23T00:13:54;6.40;;;4.60;;
18716;SDS011;9487;50.892;6.906;2022-08-23T00:16:22;5.60;;;3.73;;
18716;SDS011;9487;50.892;6.906;2022-08-23T00:18:49;7.77;;;3.77;;
18716;SDS011;9487;50.892;6.906;2022-08-23T00:21:16;7.43;;;4.10;;
18716;SDS011;9487;50.892;6.906;2022-08-23T00:23:43;6.20;;;4.00;;
18716;SDS011;9487;50.892;6.906;2022-08-23T00:26:11;4.20;;;3.73;;
18716;SDS011;9487;50.892;6.906;2022-08-23T00:28:38;6.13;;;4.13;;
18716;SDS011;9487;50.892;6.906;2022-08-23T00:31:05;5.03;;;3.70;;
18716;SDS011;9487;50.892;6.906;2022-08-23T00:33:32;5.73;;;4.10;;
18716;SDS011;9487;50.892;6.906;2022-08-23T00:35:59;4.13;;;3.50;;
18716;SDS011;9487;50.892;6.906;2022-08-23T00:38:26;4.83;;;3.80;;
18716;SDS011;9487;50.892;6.906;2022-08-23T00:40:53;4.60;;;3.80;;
18716;SDS011;9487;50.892;6.906;2022-08-23T00:43:23;6.07;;;3.97;;
18716;SDS011;9487;50.892;6.906;2022-08-23T00:46:15;7.30;;;4.27;;
18716;SDS011;9487;50.892;6.906;2022-08-23T00:49:20;4.30;;;3.87;;
18716;SDS011;9487;50.892;6.906;2022-08-23T00:51:51;5.13;;;3.80;;
18716;SDS011;9487;50.892;6.906;2022-08-23T00:54:23;4.27;;;3.87;;
18716;SDS011;9487;50.892;6.906;2022-08-23T00:56:53;4.67;;;3.90;;
18716;SDS011;9487;50.892;6.906;2022-08-23T00:59:24;6.73;;;4.23;;
18716;SDS011;9487;50.892;6.906;2022-08-23T01:01:51;5.33;;;4.17;;
18716;SDS011;9487;50.892;6.906;2022-08-23T01:04:18;5.40;;;4.17;;
18716;SDS011;9487;50.892;6.906;2022-08-23T01:06:47;5.30;;;4.20;;
18716;SDS011;9487;50.892;6.906;2022-08-23T01:09:19;4.23;;;3.80;;
18716;SDS011;9487;50.892;6.906;2022-08-23T01:11:48;5.80;;;4.23;;
18716;SDS011;9487;50.892;6.906;2022-08-23T01:14:19;5.30;;;4.00;;
18716;SDS011;9487;50.892;6.906;2022-08-23T01:16:52;7.13;;;4.17;;
18716;SDS011;9487;50.892;6.906;2022-08-23T01:19:27;6.27;;;4.07;;
18716;SDS011;9487;50.892;6.906;2022-08-23T01:21:59;6.07;;;4.33;;
18716;SDS011;9487;50.892;6.906;2022-08-23T01:24:32;5.77;;;4.47;;
18716;SDS011;9487;50.892;6.906;2022-08-23T01:26:59;6.17;;;4.70;;
18716;SDS011;9487;50.892;6.906;2022-08-23T01:29:26;5.73;;;4.33;;
18716;SDS011;9487;50.892;6.906;2022-08-23T01:31:53;5.97;;;4.17;;
18716;SDS011;9487;50.892;6.906;2022-08-23T01:34:23;5.57;;;4.40;;
18716;SDS011;9487;50.892;6.906;2022-08-23T01:36:50;5.77;;;4.50;;
18716;SDS011;9487;50.892;6.906;2022-08-23T01:39:18;6.97;;;4.53;;
18716;SDS011;9487;50.892;6.906;2022-08-23T01:41:46;4.90;;;4.37;;
18716;SDS011;9487;50.892;6.906;2022-08-23T01:44:13;4.80;;;4.40;;
18716;SDS011;9487;50.892;6.906;2022-08-23T01:46:41;5.17;;;4.40;;
18716;SDS011;9487;50.892;6.906;2022-08-23T01:49:09;7.17;;;4.50;;
18716;SDS011;9487;50.892;6.906;2022-08-23T01:51:36;6.53;;;4.73;;
18716;SDS011;9487;50.892;6.906;2022-08-23T01:54:03;6.67;;;4.70;;
18716;SDS011;9487;50.892;6.906;2022-08-23T01:56:31;6.40;;;4.40;;
18716;SDS011;9487;50.892;6.906;2022-08-23T01:59:00;5.23;;;4.70;;
18716;SDS011;9487;50.892;6.906;2022-08-23T02:01:27;5.63;;;4.60;;
18716;SDS011;9487;50.892;6.906;2022-08-23T02:03:54;8.80;;;5.70;;
18716;SDS011;9487;50.892;6.906;2022-08-23T02:06:21;7.83;;;5.23;;
18716;SDS011;9487;50.892;6.906;2022-08-23T02:08:47;6.13;;;5.43;;
18716;SDS011;9487;50.892;6.906;2022-08-23T02:11:35;7.40;;;6.27;;
18716;SDS011;9487;50.892;6.906;2022-08-23T02:14:05;8.60;;;6.13;;
18716;SDS011;9487;50.892;6.906;2022-08-23T02:16:36;8.47;;;6.50;;
18716;SDS011;9487;50.892;6.906;2022-08-23T02:19:06;7.90;;;6.20;;
18716;SDS011;9487;50.892;6.906;2022-08-23T02:21:34;9.63;;;5.83;;
18716;SDS011;9487;50.892;6.906;2022-08-23T02:24:03;6.60;;;6.00;;
18716;SDS011;9487;50.892;6.906;2022-08-23T02:26:31;7.70;;;5.97;;
18716;SDS011;9487;50.892;6.906;2022-08-23T02:29:00;7.53;;;6.20;;
18716;SDS011;9487;50.892;6.906;2022-08-23T02:31:28;8.07;;;6.30;;
18716;SDS011;9487;50.892;6.906;2022-08-23T02:33:55;9.23;;;6.00;;
18716;SDS011;9487;50.892;6.906;2022-08-23T02:36:22;6.80;;;5.70;;
18716;SDS011;9487;50.892;6.906;2022-08-23T02:38:49;10.07;;;6.23;;
18716;SDS011;9487;50.892;6.906;2022-08-23T02:41:16;9.20;;;7.00;;
18716;SDS011;9487;50.892;6.906;2022-08-23T02:43:43;8.57;;;6.27;;
18716;SDS011;9487;50.892;6.906;2022-08-23T02:46:10;7.27;;;6.20;;
18716;SDS011;9487;50.892;6.906;2022-08-23T02:48:39;8.67;;;6.77;;
18716;SDS011;9487;50.892;6.906;2022-08-23T02:51:07;7.53;;;6.00;;
18716;SDS011;9487;50.892;6.906;2022-08-23T02:53:35;8.10;;;5.97;;
18716;SDS011;9487;50.892;6.906;2022-08-23T02:56:03;7.73;;;6.30;;
18716;SDS011;9487;50.892;6.906;2022-08-23T02:58:30;9.17;;;6.80;;
18716;SDS011;9487;50.892;6.906;2022-08-23T03:00:57;9.40;;;6.73;;
18716;SDS011;9487;50.892;6.906;2022-08-23T03:03:25;7.67;;;6.20;;
18716;SDS011;9487;50.892;6.906;2022-08-23T03:05:53;8.17;;;6.97;;
18716;SDS011;9487;50.892;6.906;2022-08-23T03:08:20;6.53;;;5.80;;
18716;SDS011;9487;50.892;6.906;2022-08-23T03:10:49;7.60;;;6.03;;
18716;SDS011;9487;50.892;6.906;2022-08-23T03:13:17;9.00;;;5.87;;
18716;SDS011;9487;50.892;6.906;2022-08-23T03:15:45;6.77;;;6.03;;
18716;SDS011;9487;50.892;6.906;2022-08-23T03:18:12;7.87;;;6.23;;
18716;SDS011;9487;50.892;6.906;2022-08-23T03:20:39;9.13;;;6.03;;
18716;SDS011;9487;50.892;6.906;2022-08-23T03:23:08;8.40;;;6.40;;
18716;SDS011;9487;50.892;6.906;2022-08-23T03:25:35;6.90;;;6.17;;
18716;SDS011;9487;50.892;6.906;2022-08-23T03:28:03;7.57;;;6.20;;
18716;SDS011;9487;50.892;6.906;2022-08-23T03:30:30;6.70;;;5.93;;
18716;SDS011;9487;50.892;6.906;2022-08-23T03:32:58;6.53;;;5.93;;
18716;SDS011;9487;50.892;6.906;2022-08-23T03:35:25;7.00;;;6.23;;
18716;SDS011;9487;50.892;6.906;2022-08-23T03:37:52;8.43;;;6.00;;
18716;SDS011;9487;50.892;6.906;2022-08-23T03:40:21;7.67;;;5.90;;
18716;SDS011;9487;50.892;6.906;2022-08-23T03:42:48;11.27;;;6.27;;
18716;SDS011;9487;50.892;6.906;2022-08-23T03:45:15;6.43;;;5.83;;
18716;SDS011;9487;50.892;6.906;2022-08-23T03:47:42;6.70;;;5.17;;
18716;SDS011;9487;50.892;6.906;2022-08-23T03:50:09;9.20;;;6.10;;
18716;SDS011;9487;50.892;6.906;2022-08-23T03:52:37;7.87;;;5.30;;
18716;SDS011;9487;50.892;6.906;2022-08-23T03:55:05;6.23;;;5.40;;
18716;SDS011;9487;50.892;6.906;2022-08-23T03:57:34;6.90;;;5.43;;
18716;SDS011;9487;50.892;6.906;2022-08-23T04:00:01;6.77;;;5.57;;
18716;SDS011;9487;50.892;6.906;2022-08-23T04:02:28;6.97;;;5.17;;
18716;SDS011;9487;50.892;6.906;2022-08-23T04:04:55;7.27;;;5.90;;
18716;SDS011;9487;50.892;6.906;2022-08-23T04:07:22;5.77;;;5.20;;
18716;SDS011;9487;50.892;6.906;2022-08-23T04:09:49;5.80;;;5.30;;
18716;SDS011;9487;50.892;6.906;2022-08-23T04:12:16;6.70;;;5.93;;
18716;SDS011;9487;50.892;6.906;2022-08-23T04:14:45;6.07;;;5.43;;
18716;SDS011;9487;50.892;6.906;2022-08-23T04:17:12;6.10;;;5.50;;
18716;SDS011;9487;50.892;6.906;2022-08-23T04:19:39;7.73;;;5.97;;
18716;SDS011;9487;50.892;6.906;2022-08-23T04:22:09;7.43;;;6.20;;
18716;SDS011;9487;50.892;6.906;2022-08-23T04:24:38;6.27;;;5.67;;
18716;SDS011;9487;50.892;6.906;2022-08-23T04:27:05;7.67;;;5.80;;
18716;SDS011;9487;50.892;6.906;2022-08-23T04:29:32;6.87;;;5.70;;
18716;SDS011;9487;50.892;6.906;2022-08-23T04:32:01;6.93;;;6.30;;
18716;SDS011;9487;50.892;6.906;2022-08-23T04:34:29;5.97;;;5.37;;
18716;SDS011;9487;50.892;6.906;2022-08-23T04:36:56;7.53;;;6.10;;
18716;SDS011;9487;50.892;6.906;2022-08-23T04:39:23;6.97;;;6.27;;
18716;SDS011;9487;50.892;6.906;2022-08-23T04:41:50;9.70;;;6.27;;
18716;SDS011;9487;50.892;6.906;2022-08-23T04:44:35;8.20;;;6.03;;
18716;SDS011;9487;50.892;6.906;2022-08-23T04:47:03;8.10;;;6.30;;
18716;SDS011;9487;50.892;6.906;2022-08-23T04:49:31;7.73;;;6.10;;
18716;SDS011;9487;50.892;6.906;2022-08-23T04:51:57;8.67;;;6.63;;
18716;SDS011;9487;50.892;6.906;2022-08-23T04:54:24;9.57;;;6.97;;
18716;SDS011;9487;50.892;6.906;2022-08-23T04:56:53;7.23;;;6.50;;
18716;SDS011;9487;50.892;6.906;2022-08-23T04:59:20;8.50;;;7.13;;
18716;SDS011;9487;50.892;6.906;2022-08-23T05:01:47;8.73;;;6.80;;
18716;SDS011;9487;50.892;6.906;2022-08-23T05:04:16;8.50;;;6.17;;
18716;SDS011;9487;50.892;6.906;2022-08-23T05:06:43;8.93;;;7.17;;
18716;SDS011;9487;50.892;6.906;2022-08-23T05:09:10;9.50;;;8.23;;
18716;SDS011;9487;50.892;6.906;2022-08-23T05:11:37;9.23;;;7.30;;
18716;SDS011;9487;50.892;6.906;2022-08-23T05:14:04;10.53;;;7.27;;
18716;SDS011;9487;50.892;6.906;2022-08-23T05:16:31;10.00;;;8.57;;
18716;SDS011;9487;50.892;6.906;2022-08-23T05:18:58;8.50;;;7.70;;
18716;SDS011;9487;50.892;6.906;2022-08-23T05:21:26;9.53;;;8.17;;
18716;SDS011;9487;50.892;6.906;2022-08-23T05:23:53;7.87;;;7.07;;
18716;SDS011;9487;50.892;6.906;2022-08-23T05:26:20;11.13;;;8.30;;
18716;SDS011;9487;50.892;6.906;2022-08-23T05:28:48;10.70;;;8.07;;
18716;SDS011;9487;50.892;6.906;2022-08-23T05:31:16;10.00;;;7.27;;
18716;SDS011;9487;50.892;6.906;2022-08-23T05:33:44;9.97;;;7.23;;
18716;SDS011;9487;50.892;6.906;2022-08-23T05:36:12;8.60;;;7.07;;
18716;SDS011;9487;50.892;6.906;2022-08-23T05:38:42;8.50;;;7.70;;
18716;SDS011;9487;50.892;6.906;2022-08-23T05:41:09;7.77;;;6.93;;
18716;SDS011;9487;50.892;6.906;2022-08-23T05:43:36;10.57;;;6.73;;
18716;SDS011;9487;50.892;6.906;2022-08-23T05:46:04;9.43;;;6.90;;
18716;SDS011;9487;50.892;6.906;2022-08-23T05:48:35;11.57;;;7.10;;
18716;SDS011;9487;50.892;6.906;2022-08-23T05:51:07;14.10;;;7.30;;
18716;SDS011;9487;50.892;6.906;2022-08-23T05:53:37;12.03;;;7.73;;
18716;SDS011;9487;50.892;6.906;2022-08-23T05:56:14;10.13;;;7.00;;
18716;SDS011;9487;50.892;6.906;2022-08-23T05:58:42;12.63;;;7.17;;
18716;SDS011;9487;50.892;6.906;2022-08-23T06:01:10;9.43;;;6.63;;
18716;SDS011;9487;50.892;6.906;2022-08-23T06:03:39;11.00;;;6.20;;
18716;SDS011;9487;50.892;6.906;2022-08-23T06:06:07;6.57;;;5.63;;
18716;SDS011;9487;50.892;6.906;2022-08-23T06:08:35;9.40;;;5.17;;
18716;SDS011;9487;50.892;6.906;2022-08-23T06:11:04;7.27;;;5.50;;
18716;SDS011;9487;50.892;6.906;2022-08-23T06:13:37;7.83;;;5.13;;
18716;SDS011;9487;50.892;6.906;2022-08-23T06:16:06;8.23;;;5.40;;
18716;SDS011;9487;50.892;6.906;2022-08-23T06:18:33;8.33;;;5.57;;
18716;SDS011;9487;50.892;6.906;2022-08-23T06:21:01;8.07;;;5.10;;
18716;SDS011;9487;50.892;6.906;2022-08-23T06:23:29;7.07;;;5.20;;
18716;SDS011;9487;50.892;6.906;2022-08-23T06:25:56;8.67;;;5.30;;
18716;SDS011;9487;50.892;6.906;2022-08-23T06:28:23;7.93;;;5.30;;
18716;SDS011;9487;50.892;6.906;2022-08-23T06:30:53;7.60;;;5.40;;
18716;SDS011;9487;50.892;6.906;2022-08-23T06:33:21;9.90;;;6.00;;
18716;SDS011;9487;50.892;6.906;2022-08-23T06:35:48;7.10;;;5.50;;
18716;SDS011;9487;50.892;6.906;2022-08-23T06:38:26;6.60;;;5.10;;
18716;SDS011;9487;50.892;6.906;2022-08-23T06:40:57;6.67;;;5.00;;
18716;SDS011;9487;50.892;6.906;2022-08-23T06:43:25;8.35;;;5.57;;
18716;SDS011;9487;50.892;6.906;2022-08-23T06:45:53;8.60;;;6.03;;
18716;SDS011;9487;50.892;6.906;2022-08-23T06:48:20;6.85;;;5.40;;
18716;SDS011;9487;50.892;6.906;2022-08-23T06:50:47;9.73;;;5.75;;
18716;SDS011;9487;50.892;6.906;2022-08-23T06:53:14;7.18;;;4.85;;
18716;SDS011;9487;50.892;6.906;2022-08-23T06:55:41;8.02;;;5.13;;
18716;SDS011;9487;50.892;6.906;2022-08-23T06:58:07;6.88;;;5.13;;
18716;SDS011;9487;50.892;6.906;2022-08-23T07:00:34;6.53;;;4.88;;
18716;SDS011;9487;50.892;6.906;2022-08-23T07:03:03;9.77;;;5.82;;
18716;SDS011;9487;50.892;6.906;2022-08-23T07:05:30;7.13;;;5.32;;
18716;SDS011;9487;50.892;6.906;2022-08-23T07:07:56;6.63;;;5.60;;
18716;SDS011;9487;50.892;6.906;2022-08-23T07:10:24;5.70;;;5.20;;
18716;SDS011;9487;50.892;6.906;2022-08-23T07:12:51;7.68;;;5.85;;
18716;SDS011;9487;50.892;6.906;2022-08-23T07:15:17;8.10;;;5.35;;
18716;SDS011;9487;50.892;6.906;2022-08-23T07:17:44;6.25;;;5.00;;
18716;SDS011;9487;50.892;6.906;2022-08-23T07:20:13;6.18;;;5.18;;
18716;SDS011;9487;50.892;6.906;2022-08-23T07:22:40;8.27;;;4.93;;
18716;SDS011;9487;50.892;6.906;2022-08-23T07:25:08;6.90;;;4.38;;
18716;SDS011;9487;50.892;6.906;2022-08-23T07:27:35;7.80;;;5.20;;
18716;SDS011;9487;50.892;6.906;2022-08-23T07:30:03;8.05;;;5.15;;
18716;SDS011;9487;50.892;6.906;2022-08-23T07:32:31;6.30;;;4.85;;
18716;SDS011;9487;50.892;6.906;2022-08-23T07:34:58;10.63;;;6.13;;
18716;SDS011;9487;50.892;6.906;2022-08-23T07:37:26;8.55;;;5.43;;
18716;SDS011;9487;50.892;6.906;2022-08-23T07:39:54;7.85;;;5.13;;
18716;SDS011;9487;50.892;6.906;2022-08-23T07:42:22;7.68;;;5.22;;
18716;SDS011;9487;50.892;6.906;2022-08-23T07:44:49;9.98;;;5.40;;
18716;SDS011;9487;50.892;6.906;2022-08-23T07:47:16;8.05;;;4.80;;
18716;SDS011;9487;50.892;6.906;2022-08-23T07:49:44;7.00;;;5.03;;
18716;SDS011;9487;50.892;6.906;2022-08-23T07:52:11;6.68;;;5.18;;
18716;SDS011;9487;50.892;6.906;2022-08-23T07:54:39;5.43;;;4.82;;
18716;SDS011;9487;50.892;6.906;2022-08-23T07:57:06;5.43;;;4.57;;
18716;SDS011;9487;50.892;6.906;2022-08-23T07:59:33;8.00;;;5.32;;
18716;SDS011;9487;50.892;6.906;2022-08-23T08:02:00;9.45;;;5.80;;
18716;SDS011;9487;50.892;6.906;2022-08-23T08:04:27;8.35;;;5.82;;
18716;SDS011;9487;50.892;6.906;2022-08-23T08:06:54;5.57;;;5.07;;
18716;SDS011;9487;50.892;6.906;2022-08-23T08:09:21;8.05;;;5.18;;
18716;SDS011;9487;50.892;6.906;2022-08-23T08:11:49;6.53;;;4.38;;
18716;SDS011;9487;50.892;6.906;2022-08-23T08:14:16;10.88;;;6.90;;
18716;SDS011;9487;50.892;6.906;2022-08-23T08:16:45;11.25;;;6.43;;
18716;SDS011;9487;50.892;6.906;2022-08-23T08:19:14;8.88;;;6.53;;
18716;SDS011;9487;50.892;6.906;2022-08-23T08:21:42;12.77;;;7.03;;
18716;SDS011;9487;50.892;6.906;2022-08-23T08:24:12;7.28;;;5.30;;
18716;SDS011;9487;50.892;6.906;2022-08-23T08:26:40;8.85;;;5.80;;
18716;SDS011;9487;50.892;6.906;2022-08-23T08:29:09;8.02;;;5.22;;
18716;SDS011;9487;50.892;6.906;2022-08-23T08:31:38;6.75;;;5.30;;
18716;SDS011;9487;50.892;6.906;2022-08-23T08:34:05;6.97;;;5.05;;
18716;SDS011;9487;50.892;6.906;2022-08-23T08:36:33;7.65;;;5.63;;
18716;SDS011;9487;50.892;6.906;2022-08-23T08:39:02;7.63;;;5.03;;
18716;SDS011;9487;50.892;6.906;2022-08-23T08:41:34;7.70;;;5.15;;
18716;SDS011;9487;50.892;6.906;2022-08-23T08:44:23;9.57;;;5.60;;
18716;SDS011;9487;50.892;6.906;2022-08-23T08:46:58;9.18;;;5.00;;
18716;SDS011;9487;50.892;6.906;2022-08-23T08:49:30;9.32;;;6.07;;
18716;SDS011;9487;50.892;6.906;2022-08-23T08:52:02;10.30;;;5.53;;
18716;SDS011;9487;50.892;6.906;2022-08-23T08:54:36;11.57;;;5.40;;
18716;SDS011;9487;50.892;6.906;2022-08-23T08:57:05;11.98;;;6.10;;
18716;SDS011;9487;50.892;6.906;2022-08-23T08:59:39;11.25;;;6.60;;
18716;SDS011;9487;50.892;6.906;2022-08-23T09:02:12;9.82;;;6.32;;
18716;SDS011;9487;50.892;6.906;2022-08-23T09:04:42;12.05;;;6.57;;
18716;SDS011;9487;50.892;6.906;2022-08-23T09:07:11;10.55;;;5.85;;
18716;SDS011;9487;50.892;6.906;2022-08-23T09:09:56;13.30;;;7.60;;
18716;SDS011;9487;50.892;6.906;2022-08-23T09:12:42;12.55;;;8.02;;
18716;SDS011;9487;50.892;6.906;2022-08-23T09:15:22;9.20;;;5.72;;
18716;SDS011;9487;50.892;6.906;2022-08-23T09:18:02;10.50;;;5.47;;
18716;SDS011;9487;50.892;6.906;2022-08-23T09:20:33;10.05;;;6.18;;
18716;SDS011;9487;50.892;6.906;2022-08-23T09:23:03;8.38;;;5.32;;
18716;SDS011;9487;50.892;6.906;2022-08-23T09:25:33;9.23;;;5.88;;
18716;SDS011;9487;50.892;6.906;2022-08-23T09:28:00;12.25;;;6.43;;
18716;SDS011;9487;50.892;6.906;2022-08-23T09:33:20;10.18;;;6.70;;
18716;SDS011;9487;50.892;6.906;2022-08-23T09:36:06;8.60;;;6.00;;
18716;SDS011;9487;50.892;6.906;2022-08-23T09:38:48;9.98;;;6.13;;
18716;SDS011;9487;50.892;6.906;2022-08-23T09:41:17;7.05;;;4.85;;
18716;SDS011;9487;50.892;6.906;2022-08-23T09:43:48;9.95;;;5.13;;
18716;SDS011;9487;50.892;6.906;2022-08-23T09:46:24;9.88;;;5.05;;
18716;SDS011;9487;50.892;6.906;2022-08-23T09:48:52;7.78;;;5.13;;
18716;SDS011;9487;50.892;6.906;2022-08-23T09:51:24;12.30;;;4.68;;
18716;SDS011;9487;50.892;6.906;2022-08-23T09:54:01;10.88;;;5.20;;
18716;SDS011;9487;50.892;6.906;2022-08-23T09:56:32;10.73;;;4.22;;
18716;SDS011;9487;50.892;6.906;2022-08-23T09:59:17;7.85;;;4.30;;
18716;SDS011;9487;50.892;6.906;2022-08-23T10:02:01;8.68;;;4.22;;
18716;SDS011;9487;50.892;6.906;2022-08-23T10:04:38;11.23;;;4.03;;
18716;SDS011;9487;50.892;6.906;2022-08-23T10:09:53;4.95;;;3.60;;
18716;SDS011;9487;50.892;6.906;2022-08-23T10:12:20;4.80;;;3.70;;
18716;SDS011;9487;50.892;6.906;2022-08-23T10:14:47;7.13;;;3.50;;
18716;SDS011;9487;50.892;6.906;2022-08-23T10:17:17;12.30;;;4.47;;
18716;SDS011;9487;50.892;6.906;2022-08-23T10:19:53;4.50;;;3.33;;
18716;SDS011;9487;50.892;6.906;2022-08-23T10:22:27;7.93;;;3.63;;
18716;SDS011;9487;50.892;6.906;2022-08-23T10:24:57;5.47;;;3.70;;
18716;SDS011;9487;50.892;6.906;2022-08-23T10:27:32;6.82;;;3.90;;
18716;SDS011;9487;50.892;6.906;2022-08-23T10:30:35;7.57;;;3.75;;
18716;SDS011;9487;50.892;6.906;2022-08-23T10:33:16;9.35;;;4.07;;
18716;SDS011;9487;50.892;6.906;2022-08-23T10:35:48;9.50;;;4.40;;
18716;SDS011;9487;50.892;6.906;2022-08-23T10:38:33;7.32;;;4.22;;
18716;SDS011;9487;50.892;6.906;2022-08-23T10:41:08;6.90;;;3.53;;
18716;SDS011;9487;50.892;6.906;2022-08-23T10:43:44;6.10;;;3.67;;
18716;SDS011;9487;50.892;6.906;2022-08-23T10:46:19;7.90;;;3.42;;
18716;SDS011;9487;50.892;6.906;2022-08-23T10:48:50;5.28;;;3.30;;
18716;SDS011;9487;50.892;6.906;2022-08-23T10:51:21;5.60;;;3.35;;
18716;SDS011;9487;50.892;6.906;2022-08-23T10:53:52;7.35;;;3.63;;
18716;SDS011;9487;50.892;6.906;2022-08-23T10:56:25;8.60;;;3.45;;
18716;SDS011;9487;50.892;6.906;2022-08-23T10:58:54;8.10;;;3.67;;
18716;SDS011;9487;50.892;6.906;2022-08-23T11:01:24;4.90;;;2.97;;
18716;SDS011;9487;50.892;6.906;2022-08-23T11:04:01;7.40;;;3.65;;
18716;SDS011;9487;50.892;6.906;2022-08-23T11:12:13;5.00;;;3.20;;
18716;SDS011;9487;50.892;6.906;2022-08-23T11:14:56;7.05;;;3.42;;
18716;SDS011;9487;50.892;6.906;2022-08-23T11:17:29;6.22;;;3.35;;
18716;SDS011;9487;50.892;6.906;2022-08-23T11:20:09;7.50;;;3.35;;
18716;SDS011;9487;50.892;6.906;2022-08-23T11:25:39;5.90;;;3.22;;
18716;SDS011;9487;50.892;6.906;2022-08-23T11:31:16;6.90;;;3.10;;
18716;SDS011;9487;50.892;6.906;2022-08-23T11:33:47;6.45;;;3.28;;
18716;SDS011;9487;50.892;6.906;2022-08-23T11:36:20;6.07;;;3.53;;
18716;SDS011;9487;50.892;6.906;2022-08-23T11:39:02;6.88;;;3.13;;
18716;SDS011;9487;50.892;6.906;2022-08-23T11:41:32;3.53;;;3.03;;
18716;SDS011;9487;50.892;6.906;2022-08-23T11:44:16;5.47;;;3.10;;
18716;SDS011;9487;50.892;6.906;2022-08-23T11:46:59;5.70;;;3.00;;
18716;SDS011;9487;50.892;6.906;2022-08-23T11:52:44;5.63;;;3.35;;
18716;SDS011;9487;50.892;6.906;2022-08-23T11:55:33;4.50;;;3.53;;
18716;SDS011;9487;50.892;6.906;2022-08-23T11:58:19;6.35;;;3.70;;
18716;SDS011;9487;50.892;6.906;2022-08-23T12:00:52;4.07;;;3.00;;
18716;SDS011;9487;50.892;6.906;2022-08-23T12:03:24;7.18;;;3.42;;
18716;SDS011;9487;50.892;6.906;2022-08-23T12:06:06;5.50;;;3.22;;
18716;SDS011;9487;50.892;6.906;2022-08-23T12:08:50;7.70;;;3.17;;
18716;SDS011;9487;50.892;6.906;2022-08-23T12:11:20;6.53;;;3.28;;
18716;SDS011;9487;50.892;6.906;2022-08-23T12:13:55;4.68;;;3.22;;
18716;SDS011;9487;50.892;6.906;2022-08-23T12:16:29;5.28;;;3.40;;
18716;SDS011;9487;50.892;6.906;2022-08-23T12:19:00;6.43;;;3.13;;
18716;SDS011;9487;50.892;6.906;2022-08-23T12:21:33;4.35;;;3.00;;
18716;SDS011;9487;50.892;6.906;2022-08-23T12:24:13;3.45;;;2.70;;
18716;SDS011;9487;50.892;6.906;2022-08-23T12:26:48;5.88;;;3.20;;
18716;SDS011;9487;50.892;6.906;2022-08-23T12:29:27;7.60;;;3.33;;
18716;SDS011;9487;50.892;6.906;2022-08-23T12:32:02;4.80;;;3.20;;
18716;SDS011;9487;50.892;6.906;2022-08-23T12:34:39;5.85;;;2.80;;
18716;SDS011;9487;50.892;6.906;2022-08-23T12:37:16;8.45;;;3.45;;
18716;SDS011;9487;50.892;6.906;2022-08-23T12:39:54;4.53;;;3.20;;
18716;SDS011;9487;50.892;6.906;2022-08-23T12:42:24;5.32;;;3.38;;
18716;SDS011;9487;50.892;6.906;2022-08-23T12:44:59;6.18;;;3.47;;
18716;SDS011;9487;50.892;6.906;2022-08-23T12:47:29;4.93;;;2.80;;
18716;SDS011;9487;50.892;6.906;2022-08-23T12:49:57;6.80;;;3.58;;
18716;SDS011;9487;50.892;6.906;2022-08-23T12:52:27;5.72;;;3.15;;
18716;SDS011;9487;50.892;6.906;2022-08-23T12:54:57;4.43;;;3.28;;
18716;SDS011;9487;50.892;6.906;2022-08-23T12:57:30;3.08;;;2.53;;
18716;SDS011;9487;50.892;6.906;2022-08-23T13:00:04;5.18;;;2.92;;
18716;SDS011;9487;50.892;6.906;2022-08-23T13:02:36;6.00;;;2.95;;
18716;SDS011;9487;50.892;6.906;2022-08-23T13:05:05;3.50;;;2.97;;
18716;SDS011;9487;50.892;6.906;2022-08-23T13:07:35;9.23;;;3.25;;
18716;SDS011;9487;50.892;6.906;2022-08-23T13:10:06;6.80;;;3.25;;
18716;SDS011;9487;50.892;6.906;2022-08-23T13:12:34;5.47;;;3.08;;
18716;SDS011;9487;50.892;6.906;2022-08-23T13:15:02;4.68;;;3.22;;
18716;SDS011;9487;50.892;6.906;2022-08-23T13:17:31;4.72;;;3.35;;
18716;SDS011;9487;50.892;6.906;2022-08-23T13:20:10;6.95;;;3.40;;
18716;SDS011;9487;50.892;6.906;2022-08-23T13:25:29;4.55;;;2.83;;
18716;SDS011;9487;50.892;6.906;2022-08-23T13:27:59;8.68;;;3.33;;
18716;SDS011;9487;50.892;6.906;2022-08-23T13:30:27;6.85;;;3.40;;
18716;SDS011;9487;50.892;6.906;2022-08-23T13:35:48;9.38;;;3.50;;
18716;SDS011;9487;50.892;6.906;2022-08-23T13:38:20;8.35;;;3.30;;
18716;SDS011;9487;50.892;6.906;2022-08-23T13:40:58;7.47;;;3.25;;
18716;SDS011;9487;50.892;6.906;2022-08-23T13:43:28;4.18;;;3.35;;
18716;SDS011;9487;50.892;6.906;2022-08-23T13:46:00;8.80;;;3.88;;
18716;SDS011;9487;50.892;6.906;2022-08-23T13:48:41;6.85;;;3.50;;
18716;SDS011;9487;50.892;6.906;2022-08-23T13:51:18;5.50;;;3.55;;
18716;SDS011;9487;50.892;6.906;2022-08-23T13:53:49;4.85;;;2.83;;
18716;SDS011;9487;50.892;6.906;2022-08-23T13:56:18;5.00;;;3.22;;
18716;SDS011;9487;50.892;6.906;2022-08-23T13:58:51;6.43;;;3.42;;
18716;SDS011;9487;50.892;6.906;2022-08-23T14:01:20;6.22;;;3.08;;
18716;SDS011;9487;50.892;6.906;2022-08-23T14:03:48;4.68;;;2.83;;
18716;SDS011;9487;50.892;6.906;2022-08-23T14:06:14;5.60;;;3.30;;
18716;SDS011;9487;50.892;6.906;2022-08-23T14:08:41;3.33;;;2.90;;
18716;SDS011;9487;50.892;6.906;2022-08-23T14:11:08;5.38;;;3.08;;
18716;SDS011;9487;50.892;6.906;2022-08-23T14:13:39;4.90;;;2.90;;
18716;SDS011;9487;50.892;6.906;2022-08-23T14:16:08;3.47;;;2.60;;
18716;SDS011;9487;50.892;6.906;2022-08-23T14:18:39;3.67;;;2.70;;
18716;SDS011;9487;50.892;6.906;2022-08-23T14:21:06;3.20;;;2.83;;
18716;SDS011;9487;50.892;6.906;2022-08-23T14:23:33;5.32;;;2.85;;
18716;SDS011;9487;50.892;6.906;2022-08-23T14:26:00;3.90;;;2.85;;
18716;SDS011;9487;50.892;6.906;2022-08-23T14:28:28;6.88;;;2.90;;
18716;SDS011;9487;50.892;6.906;2022-08-23T14:30:56;4.45;;;2.70;;
18716;SDS011;9487;50.892;6.906;2022-08-23T14:33:23;5.47;;;2.75;;
18716;SDS011;9487;50.892;6.906;2022-08-23T14:35:50;5.47;;;2.90;;
18716;SDS011;9487;50.892;6.906;2022-08-23T14:38:18;4.03;;;2.75;;
18716;SDS011;9487;50.892;6.906;2022-08-23T14:40:47;6.53;;;3.03;;
18716;SDS011;9487;50.892;6.906;2022-08-23T14:43:18;7.43;;;3.28;;
18716;SDS011;9487;50.892;6.906;2022-08-23T14:45:46;5.05;;;2.97;;
18716;SDS011;9487;50.892;6.906;2022-08-23T14:48:14;5.63;;;2.72;;
18716;SDS011;9487;50.892;6.906;2022-08-23T14:50:41;18.52;;;16.58;;
18716;SDS011;9487;50.892;6.906;2022-08-23T14:53:09;6.45;;;3.15;;
18716;SDS011;9487;50.892;6.906;2022-08-23T14:55:36;5.30;;;3.00;;
18716;SDS011;9487;50.892;6.906;2022-08-23T14:58:03;4.00;;;2.53;;
18716;SDS011;9487;50.892;6.906;2022-08-23T15:00:30;4.68;;;2.67;;
18716;SDS011;9487;50.892;6.906;2022-08-23T15:03:00;5.28;;;2.83;;
18716;SDS011;9487;50.892;6.906;2022-08-23T15:05:29;4.72;;;2.72;;
18716;SDS011;9487;50.892;6.906;2022-08-23T15:07:56;9.18;;;3.13;;
18716;SDS011;9487;50.892;6.906;2022-08-23T15:10:23;3.78;;;2.72;;
18716;SDS011;9487;50.892;6.906;2022-08-23T15:12:50;8.15;;;2.83;;
18716;SDS011;9487;50.892;6.906;2022-08-23T15:15:18;5.32;;;2.90;;
18716;SDS011;9487;50.892;6.906;2022-08-23T15:17:47;5.82;;;2.72;;
18716;SDS011;9487;50.892;6.906;2022-08-23T15:20:17;8.65;;;2.83;;
18716;SDS011;9487;50.892;6.906;2022-08-23T15:22:45;5.43;;;2.55;;
18716;SDS011;9487;50.892;6.906;2022-08-23T15:25:12;4.47;;;2.40;;
18716;SDS011;9487;50.892;6.906;2022-08-23T15:27:40;3.58;;;2.40;;
18716;SDS011;9487;50.892;6.906;2022-08-23T15:30:09;7.13;;;2.83;;
18716;SDS011;9487;50.892;6.906;2022-08-23T15:32:36;6.57;;;2.70;;
18716;SDS011;9487;50.892;6.906;2022-08-23T15:35:04;7.70;;;2.90;;
18716;SDS011;9487;50.892;6.906;2022-08-23T15:37:31;4.10;;;2.67;;
18716;SDS011;9487;50.892;6.906;2022-08-23T15:40:00;6.97;;;2.63;;
18716;SDS011;9487;50.892;6.906;2022-08-23T15:42:28;5.13;;;2.60;;
18716;SDS011;9487;50.892;6.906;2022-08-23T15:44:55;6.75;;;2.65;;